Time;durP1;ratioP1;P1;durP2;ratioP2;P2;SDS_P1;SDS_P2;PMS_P1;PMS_P2;Temp;Humidity;BMP_temperature;BMP_pressure;BME280_temperature;BME280_humidity;BME280_pressure;Samples;Min_cycle;Max_cycle;Signal;HPM_P1;HPM_P2
2022/03/13 00:00:49;;;;;;;12.37;8.67;;;;;;;0.87;53.19;101122.16;5032360;28;20234;-85
2022/03/13 00:03:26;;;;;;;11.30;7.87;;;;;;;0.88;53.02;101117.78;5032779;28;20202;-85
2022/03/13 00:05:54;;;;;;;10.40;7.97;;;;;;;0.91;52.80;101117.72;5034710;28;20224;-85
2022/03/13 00:08:25;;;;;;;11.77;8.40;;;;;;;0.92;52.57;101119.44;5028619;28;20635;-85
2022/03/13 00:10:57;;;;;;;11.53;8.10;;;;;;;0.85;51.90;101121.31;5037294;28;20240;-86
2022/03/13 00:13:25;;;;;;;11.77;8.27;;;;;;;0.76;51.87;101121.44;5035697;28;20201;-87
2022/03/13 00:15:52;;;;;;;12.80;7.73;;;;;;;0.71;52.09;101118.06;5029988;28;20224;-86
2022/03/13 00:18:20;;;;;;;14.53;8.10;;;;;;;0.69;52.09;101112.84;5037846;28;20594;-85
2022/03/13 00:20:47;;;;;;;10.33;7.13;;;;;;;0.72;52.22;101111.06;5029474;28;20294;-86
2022/03/13 00:23:15;;;;;;;10.10;6.50;;;;;;;0.76;52.27;101115.34;5032432;28;20206;-86
2022/03/13 00:25:42;;;;;;;9.97;7.50;;;;;;;0.79;51.83;101118.78;5036065;28;20214;-86
2022/03/13 00:28:10;;;;;;;9.47;7.70;;;;;;;0.81;51.74;101117.00;5036651;28;20777;-86
2022/03/13 00:30:37;;;;;;;10.07;7.53;;;;;;;0.78;51.49;101116.19;5037700;28;20221;-85
2022/03/13 00:33:04;;;;;;;10.37;7.23;;;;;;;0.77;51.36;101119.69;5035228;28;20626;-85
2022/03/13 00:35:31;;;;;;;12.30;7.83;;;;;;;0.76;51.18;101121.44;5039038;28;20210;-86
2022/03/13 00:37:58;;;;;;;10.30;7.77;;;;;;;0.71;51.29;101117.19;5033713;28;20301;-86
2022/03/13 00:40:26;;;;;;;13.70;8.33;;;;;;;0.63;51.19;101112.91;5038535;28;20321;-86
2022/03/13 00:42:53;;;;;;;11.03;7.73;;;;;;;0.54;51.15;101122.66;5043301;28;20243;-85
2022/03/13 00:45:20;;;;;;;15.07;8.07;;;;;;;0.40;51.54;101124.63;5034690;28;20218;-86
2022/03/13 00:47:46;;;;;;;10.47;7.10;;;;;;;0.33;51.97;101119.50;5048565;28;20235;-86
2022/03/13 00:50:13;;;;;;;11.53;7.87;;;;;;;0.31;52.64;101117.78;5026743;28;20198;-86
2022/03/13 00:52:39;;;;;;;12.80;8.43;;;;;;;0.30;52.95;101116.03;5043719;28;20210;-84
2022/03/13 00:55:07;;;;;;;14.10;7.17;;;;;;;0.28;53.00;101112.56;5030033;28;20274;-85
2022/03/13 00:57:35;;;;;;;9.83;7.77;;;;;;;0.31;53.13;101120.38;5037117;28;20218;-85
2022/03/13 01:00:02;;;;;;;10.40;8.43;;;;;;;0.31;53.06;101115.16;5038892;28;20222;-85
2022/03/13 01:02:28;;;;;;;13.97;8.17;;;;;;;0.30;53.36;101109.03;5038636;28;20297;-86
2022/03/13 01:04:55;;;;;;;11.00;7.90;;;;;;;0.29;53.21;101111.69;5038386;28;20292;-86
2022/03/13 01:07:22;;;;;;;11.73;8.20;;;;;;;0.28;53.46;101115.19;5029310;28;20285;-87
2022/03/13 01:09:48;;;;;;;12.23;8.47;;;;;;;0.27;53.44;101118.69;5036026;28;20209;-86
2022/03/13 01:12:15;;;;;;;12.90;8.07;;;;;;;0.28;53.95;101120.44;5037317;28;20201;-86
2022/03/13 01:14:43;;;;;;;10.70;8.17;;;;;;;0.26;53.72;101123.06;5019163;28;20218;-86
2022/03/13 01:17:11;;;;;;;12.47;8.40;;;;;;;0.26;53.90;101115.22;5031850;28;20293;-87
2022/03/13 01:19:38;;;;;;;12.37;9.07;;;;;;;0.26;53.97;101124.81;5033939;28;20715;-86
2022/03/13 01:22:05;;;;;;;13.47;10.20;;;;;;;0.25;53.91;101113.47;5022897;28;20230;-87
2022/03/13 01:24:34;;;;;;;16.00;10.30;;;;;;;0.25;53.87;101117.84;5039056;28;20210;-87
2022/03/13 01:27:02;;;;;;;21.20;11.70;;;;;;;0.24;53.76;101113.50;5037956;28;20198;-86
2022/03/13 01:29:31;;;;;;;24.40;14.70;;;;;;;0.22;53.88;101110.88;5037751;28;20501;-85
2022/03/13 01:32:00;;;;;;;16.53;11.73;;;;;;;0.21;53.47;101108.28;5035925;28;20202;-85
2022/03/13 01:34:42;;;;;;;18.50;10.63;;;;;;;0.20;53.96;101110.03;5035984;28;20216;-84
2022/03/13 01:37:13;;;;;;;13.93;10.17;;;;;;;0.18;54.03;101100.50;5037914;28;20210;-85
2022/03/13 01:39:39;;;;;;;15.47;10.67;;;;;;;0.14;53.96;101097.06;5030639;28;20206;-86
2022/03/13 01:42:07;;;;;;;14.80;10.00;;;;;;;0.13;53.88;101099.69;5043364;28;20229;-87
2022/03/13 01:44:33;;;;;;;12.43;8.97;;;;;;;0.10;54.01;101092.72;5037376;28;20787;-85
2022/03/13 01:47:02;;;;;;;12.83;9.13;;;;;;;0.08;54.04;101101.50;5036463;28;20260;-85
2022/03/13 01:49:29;;;;;;;13.70;9.27;;;;;;;0.04;54.23;101098.03;5037866;28;20234;-85
2022/03/13 01:51:57;;;;;;;12.70;8.33;;;;;;;0.03;54.18;101098.06;5037203;28;20206;-85
2022/03/13 01:54:24;;;;;;;13.63;8.53;;;;;;;-0.01;54.33;101097.25;5034408;28;20217;-85
2022/03/13 01:56:50;;;;;;;14.57;9.03;;;;;;;-0.03;54.45;101093.78;5037539;28;20228;-85
2022/03/13 01:59:17;;;;;;;12.43;8.53;;;;;;;-0.06;54.61;101092.06;5038327;28;20241;-84
2022/03/13 02:01:44;;;;;;;11.20;8.00;;;;;;;-0.10;55.02;101102.59;5036748;28;20218;-86
2022/03/13 02:04:13;;;;;;;12.03;9.23;;;;;;;-0.12;54.46;101091.28;5034326;28;20317;-87
2022/03/13 02:06:40;;;;;;;12.23;8.90;;;;;;;-0.15;54.61;101093.94;5030963;28;20215;-86
2022/03/13 02:09:07;;;;;;;12.47;8.20;;;;;;;-0.21;54.63;101086.16;5024241;28;20230;-87
2022/03/13 02:11:40;;;;;;;13.70;8.07;;;;;;;-0.24;54.85;101084.44;5024133;28;20232;-86
2022/03/13 02:14:08;;;;;;;11.00;8.20;;;;;;;-0.29;54.59;101075.78;5030821;28;20273;-86
2022/03/13 02:16:36;;;;;;;10.83;8.07;;;;;;;-0.32;54.73;101075.81;5023827;28;20330;-86
2022/03/13 02:19:05;;;;;;;10.97;7.07;;;;;;;-0.31;55.01;101074.94;5027738;28;20218;-86
2022/03/13 02:21:39;;;;;;;12.07;7.80;;;;;;;-0.33;54.81;101071.47;5025334;28;20631;-87
2022/03/13 02:24:12;;;;;;;12.03;7.73;;;;;;;-0.33;55.10;101073.22;5030858;28;20313;-86
2022/03/13 02:26:38;;;;;;;12.77;8.63;;;;;;;-0.35;54.75;101068.00;5032777;28;20281;-86
2022/03/13 02:29:11;;;;;;;13.53;8.13;;;;;;;-0.35;54.81;101070.59;5036379;28;20237;-84
2022/03/13 02:31:39;;;;;;;10.53;7.93;;;;;;;-0.37;54.92;101062.81;5036899;28;20202;-85
2022/03/13 02:34:09;;;;;;;14.37;9.03;;;;;;;-0.37;54.78;101065.41;5036845;28;20614;-86
2022/03/13 02:36:55;;;;;;;10.93;7.53;;;;;;;-0.39;54.59;101061.09;5033921;28;20214;-85
2022/03/13 02:39:24;;;;;;;12.27;7.70;;;;;;;-0.40;55.00;101052.38;5016688;28;20236;-86
2022/03/13 02:41:50;;;;;;;11.37;8.00;;;;;;;-0.40;54.94;101061.97;5042225;28;20233;-87
2022/03/13 02:44:18;;;;;;;11.50;8.03;;;;;;;-0.43;54.95;101054.16;5028150;28;20720;-84
2022/03/13 02:46:54;;;;;;;12.37;8.10;;;;;;;-0.44;54.69;101052.41;5032241;28;20360;-84
2022/03/13 02:49:26;;;;;;;10.77;7.93;;;;;;;-0.45;54.69;101061.16;5027499;28;20229;-85
2022/03/13 02:51:54;;;;;;;12.77;9.30;;;;;;;-0.50;54.62;101055.09;5026755;28;20223;-85
2022/03/13 02:54:23;;;;;;;11.33;7.63;;;;;;;-0.54;54.53;101064.75;5030537;28;20206;-85
2022/03/13 02:56:52;;;;;;;14.40;8.83;;;;;;;-0.61;54.88;101064.81;5016571;28;20294;-85
2022/03/13 02:59:20;;;;;;;11.77;8.40;;;;;;;-0.70;55.10;101060.53;5017720;28;20227;-84
2022/03/13 03:01:47;;;;;;;11.20;8.57;;;;;;;-0.74;55.12;101058.88;5017208;28;20248;-85
2022/03/13 03:04:14;;;;;;;12.87;8.47;;;;;;;-0.77;55.38;101058.91;5026593;28;20210;-85
2022/03/13 03:06:51;;;;;;;10.23;8.20;;;;;;;-0.79;55.69;101052.81;5026755;28;20207;-84
2022/03/13 03:09:18;;;;;;;11.37;8.67;;;;;;;-0.80;55.84;101064.16;5022625;28;20312;-85
2022/03/13 03:11:46;;;;;;;11.20;7.70;;;;;;;-0.82;55.86;101060.69;5025521;28;20211;-84
2022/03/13 03:14:13;;;;;;;12.47;8.37;;;;;;;-0.83;56.11;101058.94;5018522;28;20211;-86
2022/03/13 03:16:39;;;;;;;13.63;9.13;;;;;;;-0.84;56.56;101055.47;5035514;28;20233;-84
2022/03/13 03:19:06;;;;;;;11.90;8.33;;;;;;;-0.86;56.26;101058.97;5032448;28;20230;-85
2022/03/13 03:21:33;;;;;;;12.30;9.00;;;;;;;-0.88;56.12;101056.38;5034912;28;20230;-87
2022/03/13 03:24:00;;;;;;;11.93;9.10;;;;;;;-0.89;56.61;101061.63;5034958;28;20214;-86
2022/03/13 03:26:27;;;;;;;11.97;8.60;;;;;;;-0.93;56.92;101050.34;5021185;28;20215;-85
2022/03/13 03:28:55;;;;;;;12.40;7.83;;;;;;;-0.91;56.94;101053.81;5028173;28;20226;-86
2022/03/13 03:31:21;;;;;;;16.03;8.40;;;;;;;-0.93;56.86;101049.47;5027424;28;20222;-85
2022/03/13 03:33:48;;;;;;;10.77;8.13;;;;;;;-0.94;56.46;101052.97;5019235;28;20553;-85
2022/03/13 03:36:15;;;;;;;12.47;8.90;;;;;;;-0.95;56.76;101052.09;5040070;28;20232;-86
2022/03/13 03:38:41;;;;;;;10.97;8.00;;;;;;;-0.95;56.71;101057.34;5033820;28;20245;-85
2022/03/13 03:41:08;;;;;;;10.17;8.10;;;;;;;-0.96;56.22;101063.44;5035711;28;20238;-85
2022/03/13 03:43:35;;;;;;;11.20;7.97;;;;;;;-0.95;56.30;101062.56;5035937;28;20304;-86
2022/03/13 03:46:03;;;;;;;14.07;8.80;;;;;;;-0.96;56.38;101065.19;5033900;28;20260;-85
2022/03/13 03:48:31;;;;;;;13.00;8.47;;;;;;;-0.97;56.72;101059.09;5034674;28;20313;-84
2022/03/13 03:50:57;;;;;;;14.07;8.73;;;;;;;-0.95;56.73;101067.78;5035472;28;20727;-85
2022/03/13 03:53:24;;;;;;;12.50;8.97;;;;;;;-0.96;56.69;101066.06;5034000;28;20232;-85
2022/03/13 03:55:50;;;;;;;13.33;9.07;;;;;;;-0.95;56.45;101062.56;5034561;28;20220;-84
2022/03/13 03:58:21;;;;;;;13.03;9.07;;;;;;;-0.96;56.81;101060.84;5033619;28;20229;-84
2022/03/13 04:00:48;;;;;;;10.33;8.17;;;;;;;-0.96;56.59;101055.59;5034745;28;20635;-84
2022/03/13 04:03:16;;;;;;;15.57;8.67;;;;;;;-0.97;56.73;101058.22;5033952;28;20221;-86
2022/03/13 04:05:43;;;;;;;11.37;8.53;;;;;;;-0.99;56.55;101060.84;5029938;28;20357;-87
2022/03/13 04:08:09;;;;;;;13.00;8.60;;;;;;;-1.06;56.49;101065.25;5025893;28;20890;-85
2022/03/13 04:10:36;;;;;;;13.70;8.67;;;;;;;-1.16;56.19;101063.63;5052230;28;20209;-86
2022/03/13 04:13:04;;;;;;;12.77;8.23;;;;;;;-1.27;56.58;101056.78;5026839;28;20211;-86
2022/03/13 04:15:30;;;;;;;13.10;9.03;;;;;;;-1.36;57.23;101065.53;5031105;28;20209;-86
2022/03/13 04:17:57;;;;;;;13.73;8.30;;;;;;;-1.41;57.33;101060.34;5044639;28;20248;-85
2022/03/13 04:20:25;;;;;;;12.60;8.83;;;;;;;-1.44;57.73;101057.78;5038745;28;20657;-86
2022/03/13 04:22:52;;;;;;;12.67;8.90;;;;;;;-1.46;58.05;101062.16;5032282;28;20230;-87
2022/03/13 04:25:18;;;;;;;11.93;9.03;;;;;;;-1.46;58.42;101061.28;5048972;28;20660;-87
2022/03/13 04:27:45;;;;;;;13.43;9.40;;;;;;;-1.46;58.21;101063.91;5031704;28;20238;-86
2022/03/13 04:30:13;;;;;;;13.23;9.20;;;;;;;-1.47;58.35;101067.38;5039588;28;20218;-84
2022/03/13 04:32:40;;;;;;;11.00;8.43;;;;;;;-1.48;58.62;101065.66;5029724;28;20726;-85
2022/03/13 04:35:07;;;;;;;12.80;9.07;;;;;;;-1.52;58.99;101071.75;5032233;28;20203;-87
2022/03/13 04:37:35;;;;;;;15.73;9.67;;;;;;;-1.55;58.79;101064.81;5034881;28;20251;-85
2022/03/13 04:40:01;;;;;;;14.57;9.53;;;;;;;-1.58;59.52;101067.44;5028602;28;20210;-86
2022/03/13 04:42:28;;;;;;;11.73;9.07;;;;;;;-1.61;59.50;101054.41;5034046;28;20226;-86
2022/03/13 04:44:54;;;;;;;13.00;8.87;;;;;;;-1.61;59.78;101064.00;5029104;28;20320;-86
2022/03/13 04:47:21;;;;;;;12.60;8.93;;;;;;;-1.64;59.48;101067.50;5031736;28;20582;-86
2022/03/13 04:49:48;;;;;;;13.60;8.87;;;;;;;-1.66;59.25;101064.03;5028322;28;20275;-86
2022/03/13 04:52:14;;;;;;;12.80;9.43;;;;;;;-1.67;60.03;101054.47;5026117;28;20203;-87
2022/03/13 04:54:42;;;;;;;13.00;9.07;;;;;;;-1.67;59.56;101056.22;5031647;28;20214;-85
2022/03/13 04:57:09;;;;;;;15.50;9.87;;;;;;;-1.69;60.14;101053.59;5029618;28;20206;-86
2022/03/13 04:59:35;;;;;;;15.40;9.70;;;;;;;-1.68;60.14;101052.72;5024412;28;20229;-86
2022/03/13 05:02:02;;;;;;;12.27;8.77;;;;;;;-1.70;60.57;101054.47;5027549;28;20597;-86
2022/03/13 05:04:31;;;;;;;12.13;8.87;;;;;;;-1.72;60.30;101053.63;5031110;28;20213;-87
2022/03/13 05:06:58;;;;;;;13.70;9.27;;;;;;;-1.76;60.27;101057.13;5024826;28;20211;-85
2022/03/13 05:09:25;;;;;;;14.27;9.53;;;;;;;-1.80;60.42;101052.81;5028034;28;20230;-85
2022/03/13 05:11:53;;;;;;;13.47;9.27;;;;;;;-1.84;60.49;101054.59;5032070;28;20206;-86
2022/03/13 05:14:21;;;;;;;13.87;9.10;;;;;;;-1.87;60.67;101054.59;5029096;28;20195;-84
2022/03/13 05:16:47;;;;;;;13.50;8.30;;;;;;;-1.92;60.58;101060.72;5027804;28;20218;-85
2022/03/13 05:19:15;;;;;;;13.50;8.40;;;;;;;-2.00;60.49;101059.91;5027435;28;20225;-85
2022/03/13 05:21:42;;;;;;;12.90;8.60;;;;;;;-2.04;60.67;101058.19;5028028;28;20235;-85
2022/03/13 05:24:08;;;;;;;13.07;9.30;;;;;;;-2.05;61.33;101066.88;5031545;28;20202;-84
2022/03/13 05:26:35;;;;;;;12.27;8.23;;;;;;;-2.07;60.99;101066.03;5025470;28;20310;-84
2022/03/13 05:29:03;;;;;;;13.87;8.70;;;;;;;-2.11;61.27;101062.56;5032758;28;20231;-86
2022/03/13 05:31:30;;;;;;;13.00;8.50;;;;;;;-2.14;61.45;101065.16;5031833;28;20199;-86
2022/03/13 05:33:57;;;;;;;14.40;9.13;;;;;;;-2.16;61.58;101067.81;5027158;28;20246;-87
2022/03/13 05:36:23;;;;;;;14.47;8.93;;;;;;;-2.19;61.67;101067.81;5034995;28;20207;-86
2022/03/13 05:38:50;;;;;;;15.00;9.27;;;;;;;-2.19;62.39;101062.63;5026375;28;20219;-84
2022/03/13 05:41:17;;;;;;;17.40;9.60;;;;;;;-2.20;62.29;101057.41;5034784;28;20206;-86
2022/03/13 05:43:43;;;;;;;18.33;9.37;;;;;;;-2.18;62.42;101066.97;5023691;28;20289;-86
2022/03/13 05:46:11;;;;;;;14.00;9.40;;;;;;;-2.19;62.95;101061.75;5032144;28;20630;-86
2022/03/13 05:48:39;;;;;;;16.93;9.17;;;;;;;-2.21;62.77;101061.75;5029378;28;20226;-87
2022/03/13 05:51:06;;;;;;;12.13;9.13;;;;;;;-2.26;62.83;101060.88;5023556;28;20217;-85
2022/03/13 05:53:33;;;;;;;12.03;8.53;;;;;;;-2.27;62.69;101063.50;5036353;28;20214;-85
2022/03/13 05:55:59;;;;;;;11.03;9.07;;;;;;;-2.32;63.03;101060.91;5022542;28;20210;-85
2022/03/13 05:58:26;;;;;;;12.37;9.23;;;;;;;-2.34;63.60;101060.06;5025515;28;20230;-85
2022/03/13 06:01:03;;;;;;;13.53;9.47;;;;;;;-2.34;63.77;101064.44;5030796;28;20594;-85
2022/03/13 06:03:31;;;;;;;12.40;9.00;;;;;;;-2.33;63.71;101063.56;5037266;28;20277;-85
2022/03/13 06:05:58;;;;;;;15.30;9.87;;;;;;;-2.33;63.91;101061.78;5037525;28;20252;-86
2022/03/13 06:08:26;;;;;;;13.70;9.43;;;;;;;-2.31;63.99;101065.25;5050258;28;20242;-86
2022/03/13 06:10:52;;;;;;;12.03;9.03;;;;;;;-2.30;64.04;101067.00;5034756;28;20665;-84
2022/03/13 06:13:19;;;;;;;15.33;8.97;;;;;;;-2.28;63.97;101070.47;5026822;28;20206;-85
2022/03/13 06:15:46;;;;;;;15.27;9.37;;;;;;;-2.26;63.97;101073.94;5035805;28;20561;-86
2022/03/13 06:18:13;;;;;;;15.20;9.63;;;;;;;-2.25;64.25;101066.97;5029515;28;20237;-86
2022/03/13 06:20:41;;;;;;;19.07;10.23;;;;;;;-2.23;64.38;101057.41;5032713;28;20564;-86
2022/03/13 06:23:08;;;;;;;12.70;9.13;;;;;;;-2.20;63.92;101073.91;5035315;28;20261;-86
2022/03/13 06:25:35;;;;;;;12.47;8.50;;;;;;;-2.21;64.15;101080.00;5024179;28;20586;-84
2022/03/13 06:28:01;;;;;;;13.43;10.07;;;;;;;-2.22;64.21;101080.88;5036912;28;20651;-85
2022/03/13 06:30:29;;;;;;;15.17;9.20;;;;;;;-2.22;64.09;101078.28;5025130;28;20301;-87
2022/03/13 06:32:56;;;;;;;12.77;9.27;;;;;;;-2.24;64.59;101080.03;5027121;28;20657;-84
2022/03/13 06:35:24;;;;;;;14.67;9.07;;;;;;;-2.25;64.91;101075.66;5031065;28;20214;-86
2022/03/13 06:37:54;;;;;;;14.20;9.60;;;;;;;-2.26;65.25;101075.69;5036239;28;20246;-85
2022/03/13 06:40:22;;;;;;;15.87;10.00;;;;;;;-2.23;64.80;101078.28;5021203;28;20211;-86
2022/03/13 06:42:51;;;;;;;12.33;9.10;;;;;;;-2.23;65.26;101079.16;5029100;28;20238;-86
2022/03/13 06:45:19;;;;;;;15.57;9.47;;;;;;;-2.21;65.08;101082.63;5030606;28;20211;-86
2022/03/13 06:47:49;;;;;;;15.23;10.13;;;;;;;-2.20;65.36;101086.97;5016262;28;20705;-86
2022/03/13 06:50:17;;;;;;;14.80;9.27;;;;;;;-2.17;66.12;101092.19;5025228;28;20214;-86
2022/03/13 06:52:45;;;;;;;15.03;9.43;;;;;;;-2.15;65.93;101089.56;5020905;28;20225;-86
2022/03/13 06:55:13;;;;;;;15.23;9.67;;;;;;;-2.10;66.26;101090.38;5019397;28;20257;-86
2022/03/13 06:57:40;;;;;;;12.77;8.97;;;;;;;-2.05;66.86;101092.97;5034860;28;20642;-85
2022/03/13 07:00:07;;;;;;;14.13;8.70;;;;;;;-2.00;66.77;101096.44;5024687;28;20225;-86
2022/03/13 07:02:34;;;;;;;13.30;8.93;;;;;;;-1.96;67.36;101085.94;5035387;28;20226;-86
2022/03/13 07:05:01;;;;;;;13.83;9.27;;;;;;;-1.89;67.61;101089.41;5034972;28;20221;-86
2022/03/13 07:07:27;;;;;;;12.50;9.00;;;;;;;-1.83;67.63;101094.59;5036669;28;20210;-87
2022/03/13 07:09:57;;;;;;;14.17;9.23;;;;;;;-1.77;68.06;101097.16;5027411;28;20294;-87
2022/03/13 07:12:25;;;;;;;11.27;8.27;;;;;;;-1.69;68.27;101091.91;5019959;28;20203;-86
2022/03/13 07:14:56;;;;;;;12.20;8.50;;;;;;;-1.61;68.27;101090.97;5025579;28;20211;-85
2022/03/13 07:17:23;;;;;;;10.73;8.13;;;;;;;-1.53;68.12;101104.00;5024362;28;20195;-86
2022/03/13 07:19:50;;;;;;;12.77;8.23;;;;;;;-1.44;67.98;101102.19;5017521;28;20210;-85
2022/03/13 07:22:16;;;;;;;12.10;7.93;;;;;;;-1.37;67.80;101099.50;5021253;28;20216;-85
2022/03/13 07:24:46;;;;;;;11.63;8.20;;;;;;;-1.25;67.44;101107.25;5022059;28;20203;-85
2022/03/13 07:27:14;;;;;;;10.87;7.53;;;;;;;-1.17;66.82;101098.47;5022232;28;20202;-84
2022/03/13 07:29:42;;;;;;;14.67;8.73;;;;;;;-1.07;66.58;101104.47;5019849;28;20218;-85
2022/03/13 07:32:09;;;;;;;13.80;9.10;;;;;;;-0.98;66.87;101107.03;5022078;28;20229;-85
2022/03/13 07:34:35;;;;;;;14.47;7.87;;;;;;;-0.88;66.17;101098.22;5027469;28;20242;-86
2022/03/13 07:37:02;;;;;;;12.77;8.20;;;;;;;-0.79;65.97;101095.53;5028878;28;20214;-86
2022/03/13 07:39:29;;;;;;;16.23;8.73;;;;;;;-0.70;65.74;101095.41;5024889;28;20603;-85
2022/03/13 07:41:55;;;;;;;11.67;8.40;;;;;;;-0.58;65.26;101088.34;5026549;28;20214;-86
2022/03/13 07:44:22;;;;;;;12.73;8.80;;;;;;;-0.48;65.20;101084.72;5027260;28;20738;-85
2022/03/13 07:46:50;;;;;;;12.53;7.93;;;;;;;-0.36;64.87;101077.59;5027243;28;20680;-86
2022/03/13 07:49:17;;;;;;;11.93;8.27;;;;;;;-0.20;64.61;101080.06;5022066;28;20226;-87
2022/03/13 07:51:44;;;;;;;12.53;8.33;;;;;;;-0.08;64.45;101079.88;5030557;28;20309;-86
2022/03/13 07:54:11;;;;;;;15.10;8.47;;;;;;;0.08;63.85;101078.78;5024443;28;20194;-86
2022/03/13 07:56:38;;;;;;;12.50;8.73;;;;;;;0.25;63.88;101071.56;5023216;28;21672;-86
2022/03/13 07:59:04;;;;;;;12.10;8.30;;;;;;;0.45;63.09;101081.75;5022453;28;20239;-86
2022/03/13 08:01:31;;;;;;;10.10;7.63;;;;;;;0.67;62.94;101087.53;5029305;28;20213;-86
2022/03/13 08:04:01;;;;;;;13.40;8.63;;;;;;;0.91;62.51;101081.88;5026905;28;20692;-84
2022/03/13 08:06:33;;;;;;;9.73;7.70;;;;;;;1.13;61.66;101082.38;5028927;28;20198;-84
2022/03/13 08:08:59;;;;;;;10.47;7.67;;;;;;;1.34;61.32;101091.59;5024933;28;20277;-85
2022/03/13 08:11:26;;;;;;;11.93;8.27;;;;;;;1.56;60.26;101078.94;5024660;28;20206;-85
2022/03/13 08:13:53;;;;;;;10.47;7.37;;;;;;;1.78;59.89;101076.78;5024945;28;20202;-86
2022/03/13 08:16:19;;;;;;;10.30;7.20;;;;;;;1.99;59.07;101087.66;5027794;28;20202;-84
2022/03/13 08:18:46;;;;;;;11.60;7.40;;;;;;;2.20;58.51;101080.22;5021855;28;20223;-86
2022/03/13 08:21:16;;;;;;;7.27;5.97;;;;;;;2.40;56.74;101086.75;5024284;28;20201;-86
2022/03/13 08:23:44;;;;;;;10.87;7.00;;;;;;;2.58;55.83;101081.97;5021072;28;20227;-85
2022/03/13 08:26:12;;;;;;;9.37;7.20;;;;;;;2.76;54.44;101092.06;5022596;28;20208;-86
2022/03/13 08:28:38;;;;;;;9.03;6.27;;;;;;;2.95;53.91;101087.22;5028480;28;20281;-87
2022/03/13 08:31:05;;;;;;;9.43;6.97;;;;;;;3.13;52.86;101081.47;5022833;28;20215;-87
2022/03/13 08:33:32;;;;;;;8.87;6.37;;;;;;;3.36;52.29;101080.88;5027431;28;20221;-85
2022/03/13 08:35:58;;;;;;;10.30;6.27;;;;;;;3.61;52.23;101081.06;5030214;28;20225;-86
2022/03/13 08:38:27;;;;;;;9.07;7.10;;;;;;;3.83;50.86;101076.91;5027692;28;20316;-84
2022/03/13 08:40:54;;;;;;;11.70;6.47;;;;;;;4.05;49.82;101074.53;5023988;28;20620;-85
2022/03/13 08:43:20;;;;;;;9.50;6.47;;;;;;;4.26;49.66;101068.59;5024431;28;20223;-86
2022/03/13 08:45:47;;;;;;;8.77;6.83;;;;;;;4.52;48.45;101073.06;5024934;28;20209;-85
2022/03/13 08:48:14;;;;;;;8.57;6.47;;;;;;;4.75;47.92;101065.28;5025949;28;20249;-86
2022/03/13 08:50:41;;;;;;;7.77;6.50;;;;;;;4.97;47.33;101064.56;5025937;28;20211;-86
2022/03/13 08:53:08;;;;;;;6.37;5.60;;;;;;;5.13;45.92;101066.63;5026414;28;20260;-86
2022/03/13 08:55:36;;;;;;;7.53;5.67;;;;;;;5.39;46.39;101072.75;5027473;28;20210;-86
2022/03/13 08:58:02;;;;;;;8.83;6.53;;;;;;;5.61;45.28;101062.28;5020723;28;20230;-86
2022/03/13 09:00:29;;;;;;;8.43;6.20;;;;;;;5.79;44.38;101066.91;5031480;28;20206;-85
2022/03/13 09:02:56;;;;;;;8.70;6.17;;;;;;;5.94;43.67;101071.66;5035107;28;20258;-86
2022/03/13 09:05:23;;;;;;;8.53;6.67;;;;;;;6.08;43.05;101073.81;5027020;28;20378;-86
2022/03/13 09:07:50;;;;;;;6.37;5.77;;;;;;;6.24;42.84;101072.28;5023173;28;20214;-85
2022/03/13 09:10:16;;;;;;;7.77;6.33;;;;;;;6.40;42.44;101067.25;5028514;28;20198;-86
2022/03/13 09:12:44;;;;;;;8.50;6.47;;;;;;;6.59;41.68;101068.25;5021862;28;20217;-85
2022/03/13 09:15:11;;;;;;;8.07;6.13;;;;;;;6.74;40.89;101066.75;5025006;28;20199;-87
2022/03/13 09:17:38;;;;;;;8.80;6.80;;;;;;;6.91;41.21;101066.94;5021966;28;20230;-85
2022/03/13 09:20:06;;;;;;;7.70;5.73;;;;;;;7.07;40.79;101062.72;5030469;28;20206;-86
2022/03/13 09:22:35;;;;;;;7.53;6.10;;;;;;;7.20;40.08;101049.78;5028227;28;20229;-85
2022/03/13 09:25:03;;;;;;;7.93;6.30;;;;;;;7.39;40.12;101047.22;5029183;28;20199;-87
2022/03/13 09:27:30;;;;;;;9.57;6.30;;;;;;;7.56;39.01;101048.19;5028609;28;20261;-86
2022/03/13 09:30:01;;;;;;;6.70;5.93;;;;;;;7.73;39.38;101055.38;5028784;28;20210;-84
2022/03/13 09:32:28;;;;;;;7.63;5.87;;;;;;;7.87;39.15;101052.13;5029478;28;20210;-85
2022/03/13 09:34:57;;;;;;;8.47;6.77;;;;;;;7.95;37.91;101056.13;5028038;28;20716;-84
2022/03/13 09:37:24;;;;;;;8.47;6.23;;;;;;;8.07;37.72;101059.13;5029054;28;20329;-84
2022/03/13 09:39:52;;;;;;;9.67;6.63;;;;;;;8.20;37.61;101061.16;5027265;28;20656;-84
2022/03/13 09:42:19;;;;;;;8.73;6.70;;;;;;;8.36;37.00;101058.69;5025552;28;20206;-84
2022/03/13 09:44:46;;;;;;;7.33;5.80;;;;;;;8.46;35.89;101059.94;5025130;28;20613;-85
2022/03/13 09:47:14;;;;;;;9.27;6.23;;;;;;;8.60;35.42;101060.13;5022065;28;20207;-86
2022/03/13 09:49:41;;;;;;;7.70;5.97;;;;;;;8.77;34.50;101051.38;5034927;28;20228;-86
2022/03/13 09:52:08;;;;;;;7.40;6.03;;;;;;;8.93;33.75;101056.78;5032121;28;20259;-86
2022/03/13 09:54:34;;;;;;;7.70;6.07;;;;;;;9.04;33.97;101055.28;5030764;28;20202;-86
2022/03/13 09:57:02;;;;;;;8.27;6.53;;;;;;;9.20;32.83;101063.34;5029395;28;20210;-85
2022/03/13 09:59:28;;;;;;;6.67;5.97;;;;;;;9.36;32.42;101061.63;5028677;28;20222;-83
2022/03/13 10:01:55;;;;;;;6.63;5.57;;;;;;;9.46;32.50;101051.38;5033879;28;20218;-85
2022/03/13 10:04:23;;;;;;;8.77;6.13;;;;;;;9.56;32.82;101043.75;5026751;28;20630;-86
2022/03/13 10:07:04;;;;;;;6.60;5.67;;;;;;;9.63;32.66;101046.03;5027826;28;20229;-84
2022/03/13 10:09:33;;;;;;;7.87;6.23;;;;;;;9.69;32.22;101042.16;5024278;28;20227;-84
2022/03/13 10:12:09;;;;;;;8.50;6.60;;;;;;;9.74;32.11;101034.81;5034085;28;20211;-85
2022/03/13 10:14:38;;;;;;;7.37;5.83;;;;;;;9.77;32.63;101033.78;5027477;28;20213;-85
2022/03/13 10:17:06;;;;;;;9.80;6.73;;;;;;;9.79;32.56;101022.13;5030896;28;20747;-83
2022/03/13 10:19:34;;;;;;;7.33;6.50;;;;;;;9.87;32.52;101032.34;5032331;28;20222;-85
2022/03/13 10:22:05;;;;;;;10.87;6.63;;;;;;;9.94;32.83;101026.59;5027621;28;20206;-84
2022/03/13 10:24:41;;;;;;;8.07;6.07;;;;;;;9.99;32.16;101024.56;5026563;28;20261;-85
2022/03/13 10:27:15;;;;;;;8.30;5.67;;;;;;;10.09;31.98;101022.22;5022990;28;20232;-86
2022/03/13 10:29:43;;;;;;;7.50;5.57;;;;;;;10.19;31.89;101017.31;5030950;28;20309;-85
2022/03/13 10:32:10;;;;;;;6.20;5.60;;;;;;;10.28;30.72;101014.97;5025338;28;20268;-86
2022/03/13 10:34:40;;;;;;;9.03;6.80;;;;;;;10.34;30.54;101014.63;5026176;28;20206;-84
2022/03/13 10:37:07;;;;;;;8.17;5.80;;;;;;;10.40;30.70;101019.59;5027703;28;20221;-85
2022/03/13 10:39:36;;;;;;;8.40;5.80;;;;;;;10.51;30.81;101020.81;5031306;28;20222;-86
2022/03/13 10:42:03;;;;;;;6.53;5.63;;;;;;;10.57;30.07;101009.81;5029981;28;20273;-85
2022/03/13 10:44:43;;;;;;;6.53;5.33;;;;;;;10.68;29.91;101008.25;5023510;28;20223;-84
2022/03/13 10:47:10;;;;;;;5.77;5.17;;;;;;;10.82;29.85;101003.91;5021012;28;20291;-86
2022/03/13 10:49:44;;;;;;;7.20;6.30;;;;;;;10.95;29.69;101010.22;5030065;28;20262;-85
2022/03/13 10:52:25;;;;;;;6.63;5.60;;;;;;;11.05;29.21;101004.25;5035161;28;20714;-84
2022/03/13 10:54:53;;;;;;;6.80;5.70;;;;;;;11.11;28.75;101003.88;5025957;28;20203;-85
2022/03/13 10:57:19;;;;;;;7.30;5.50;;;;;;;11.21;28.36;100998.00;5024828;28;20296;-84
2022/03/13 11:00:05;;;;;;;8.80;5.43;;;;;;;11.30;28.82;101005.44;5034818;28;20303;-85
2022/03/13 11:02:32;;;;;;;10.17;6.27;;;;;;;11.42;28.63;101005.56;5041221;28;20213;-85
2022/03/13 11:05:00;;;;;;;6.97;5.60;;;;;;;11.49;27.82;100998.88;5027578;28;20222;-85
2022/03/13 11:07:27;;;;;;;6.40;5.37;;;;;;;11.54;28.13;101001.28;5026205;28;20215;-84
2022/03/13 11:09:54;;;;;;;6.57;5.40;;;;;;;11.61;27.95;100994.63;5030292;28;20235;-85
2022/03/13 11:12:24;;;;;;;8.63;5.60;;;;;;;11.69;28.29;100992.31;5027964;28;20218;-86
2022/03/13 11:14:53;;;;;;;6.60;5.20;;;;;;;11.80;27.82;100984.56;5017544;28;20211;-85
2022/03/13 11:17:24;;;;;;;6.17;5.47;;;;;;;11.89;27.19;100988.44;5023202;28;20646;-86
2022/03/13 11:19:53;;;;;;;5.83;5.00;;;;;;;11.96;26.90;100976.44;5031480;28;20207;-85
2022/03/13 11:22:22;;;;;;;6.83;6.13;;;;;;;12.00;27.09;100975.25;5026440;28;20310;-86
2022/03/13 11:24:49;;;;;;;6.90;5.60;;;;;;;12.05;27.35;100974.97;5024635;28;20230;-85